Time;durP1;ratioP1;P1;durP2;ratioP2;P2;SDS_P1;SDS_P2;PMS_P1;PMS_P2;Temp;Humidity;BMP_temperature;BMP_pressure;BME280_temperature;BME280_humidity;BME280_pressure;Samples;Min_cycle;Max_cycle;Signal;HPM_P1;HPM_P2
2022/04/10 00:00:15;;;;;;;;;;;205.40;2252.80;;;;;;5005566;28;20076;-80
2022/04/10 00:02:42;;;;;;;8.27;6.03;;;205.40;2252.80;;;;;;5003691;28;19952;-80
2022/04/10 00:05:08;;;;;;;10.77;6.25;;;205.30;2252.80;;;;;;5003367;28;20137;-81
2022/04/10 00:07:34;;;;;;;10.85;6.72;;;205.30;2252.80;;;;;;5005679;28;20064;-80
2022/04/10 00:10:00;;;;;;;13.73;8.52;;;205.20;2252.80;;;;;;5001608;28;20128;-80
2022/04/10 00:12:25;;;;;;;12.00;7.18;;;205.20;2252.80;;;;;;5003577;28;20133;-79
2022/04/10 00:14:51;;;;;;;;;;;205.20;2252.80;;;;;;5005568;28;20033;-80
2022/04/10 00:17:17;;;;;;;11.50;6.95;;;205.10;2252.80;;;;;;5002064;28;19916;-79
2022/04/10 00:19:45;;;;;;;14.23;7.75;;;205.10;2252.80;;;;;;5002900;28;20394;-79
2022/04/10 00:22:11;;;;;;;10.93;6.82;;;205.20;2252.80;;;;;;5002500;28;20044;-79
2022/04/10 00:24:37;;;;;;;14.43;8.00;;;205.10;2252.80;;;;;;5004425;28;20038;-80
2022/04/10 00:27:03;;;;;;;;;;;205.10;2252.80;;;;;;5004297;28;20121;-82
2022/04/10 00:29:28;;;;;;;10.55;6.30;;;205.20;2252.80;;;;;;5001492;28;19940;-79
2022/04/10 00:31:54;;;;;;;;;;;205.10;2252.80;;;;;;5007220;28;20117;-79
2022/04/10 00:34:20;;;;;;;10.65;5.15;;;205.00;2252.80;;;;;;5005660;28;20376;-79
2022/04/10 00:36:45;;;;;;;;;;;205.00;2252.80;;;;;;5002579;28;20026;-79
2022/04/10 00:39:11;;;;;;;7.75;5.20;;;204.90;2252.80;;;;;;5002786;28;19941;-80
2022/04/10 00:41:37;;;;;;;;;;;204.80;2252.80;;;;;;5003164;28;20022;-80
2022/04/10 00:44:10;;;;;;;9.40;4.28;;;204.90;2252.80;;;;;;5007948;28;19905;-79
2022/04/10 00:46:37;;;;;;;7.60;4.80;;;204.90;2252.80;;;;;;5004938;28;20034;-80
2022/04/10 00:49:04;;;;;;;9.18;4.90;;;180.10;2252.80;;;;;;5005353;28;20474;-81
2022/04/10 00:51:44;;;;;;;8.18;5.13;;;180.10;2252.80;;;;;;5005924;28;20087;-82
2022/04/10 00:54:18;;;;;;;11.68;5.90;;;180.10;2252.80;;;;;;5008588;28;20045;-79
2022/04/10 00:56:45;;;;;;;8.75;5.88;;;180.00;2252.80;;;;;;5008188;28;20399;-83
2022/04/10 00:59:11;;;;;;;9.38;6.43;;;179.90;2252.80;;;;;;5004048;28;20030;-80
2022/04/10 01:01:39;;;;;;;12.88;6.15;;;179.80;2252.80;;;;;;5007397;28;20030;-79
2022/04/10 01:04:06;;;;;;;13.60;6.72;;;179.70;2252.80;;;;;;5005556;28;20112;-80
2022/04/10 01:06:35;;;;;;;12.07;6.22;;;179.80;2252.80;;;;;;5004897;28;20226;-83
2022/04/10 01:09:04;;;;;;;8.80;5.43;;;179.70;2252.80;;;;;;4999821;28;20026;-78
2022/04/10 01:11:30;;;;;;;11.32;5.63;;;179.50;2252.80;;;;;;5003051;28;20101;-79
2022/04/10 01:13:56;;;;;;;8.90;5.82;;;179.40;2252.80;;;;;;5004213;28;20038;-83
2022/04/10 01:16:23;;;;;;;12.55;6.28;;;179.40;2252.80;;;;;;5003614;28;20014;-80
2022/04/10 01:18:50;;;;;;;11.48;6.45;;;179.40;2252.80;;;;;;5004951;28;20073;-80
2022/04/10 01:21:23;;;;;;;10.50;6.22;;;179.70;2252.80;;;;;;5004259;28;20986;-79
2022/04/10 01:23:51;;;;;;;11.07;5.35;;;179.50;2252.80;;;;;;5019300;28;20045;-82
2022/04/10 01:26:16;;;;;;;15.43;6.28;;;179.70;2252.80;;;;;;5003820;28;20045;-79
2022/04/10 01:28:58;;;;;;;;;;;179.60;2252.80;;;;;;5002064;28;20526;-79
2022/04/10 01:31:25;;;;;;;11.45;5.68;;;179.60;2252.80;;;;;;5001894;28;19952;-79
2022/04/10 01:33:52;;;;;;;13.20;7.07;;;179.50;2252.80;;;;;;5001714;28;20028;-79
2022/04/10 01:36:18;;;;;;;12.25;7.03;;;179.60;2252.80;;;;;;5001051;28;20125;-80
2022/04/10 01:38:44;;;;;;;;;;;179.60;2252.80;;;;;;5001661;28;20078;-79
2022/04/10 01:41:14;;;;;;;14.50;6.88;;;179.60;2252.80;;;;;;5004752;28;19956;-79
2022/04/10 01:43:50;;;;;;;10.70;6.28;;;179.60;2252.80;;;;;;5001347;28;20062;-79
2022/04/10 01:46:16;;;;;;;13.33;6.50;;;179.60;2252.80;;;;;;5001616;28;20038;-79
2022/04/10 01:48:42;;;;;;;11.40;6.07;;;179.50;2252.80;;;;;;5004626;28;20259;-79
2022/04/10 01:51:08;;;;;;;;;;;179.50;2252.80;;;;;;5006089;28;20388;-80
2022/04/10 01:53:34;;;;;;;16.17;6.68;;;179.40;2252.80;;;;;;5005903;28;19913;-79
2022/04/10 01:56:04;;;;;;;10.95;6.43;;;179.50;2252.80;;;;;;5007197;28;20233;-84
2022/04/10 01:58:31;;;;;;;9.05;6.57;;;179.50;2252.80;;;;;;5004527;28;20018;-78
2022/04/10 02:00:57;;;;;;;11.50;6.32;;;179.40;2252.80;;;;;;5006784;28;20023;-79
2022/04/10 02:03:23;;;;;;;;;;;179.50;2252.80;;;;;;5007361;28;20022;-79
2022/04/10 02:05:49;;;;;;;10.40;6.50;;;179.50;2252.80;;;;;;5004364;28;20362;-80
2022/04/10 02:08:15;;;;;;;;;;;179.50;2252.80;;;;;;5006767;28;20018;-78
2022/04/10 02:10:40;;;;;;;10.82;6.28;;;179.50;2252.80;;;;;;5007041;28;19964;-79
2022/04/10 02:13:09;;;;;;;;;;;179.50;2252.80;;;;;;5004848;28;20456;-78
2022/04/10 02:15:36;;;;;;;10.85;7.25;;;179.50;2252.80;;;;;;5005076;28;19906;-79
2022/04/10 02:18:02;;;;;;;9.90;5.93;;;179.40;2252.80;;;;;;5006583;28;20029;-78
2022/04/10 02:20:28;;;;;;;;;;;179.40;2252.80;;;;;;5003933;28;20026;-79
2022/04/10 02:22:54;;;;;;;11.98;7.20;;;179.40;2252.80;;;;;;5005172;28;19937;-80
2022/04/10 02:25:19;;;;;;;;;;;179.30;2252.80;;;;;;5004836;28;20041;-79
2022/04/10 02:27:45;;;;;;;10.13;5.85;;;179.50;2252.80;;;;;;5007538;28;19910;-79
2022/04/10 02:30:12;;;;;;;11.68;7.35;;;179.40;2252.80;;;;;;5007176;28;20018;-79
2022/04/10 02:32:39;;;;;;;16.27;7.28;;;179.30;2252.80;;;;;;5008190;28;20026;-79
2022/04/10 02:35:06;;;;;;;15.70;7.10;;;179.30;2252.80;;;;;;5004508;28;20077;-79
2022/04/10 02:37:31;;;;;;;9.65;6.93;;;179.20;2252.80;;;;;;5005550;28;20088;-79
2022/04/10 02:39:57;;;;;;;;;;;179.20;2252.80;;;;;;5007471;28;20463;-84
2022/04/10 02:42:23;;;;;;;10.40;7.13;;;179.20;2252.80;;;;;;5004249;28;19956;-79
2022/04/10 02:44:48;;;;;;;;;;;179.20;2252.80;;;;;;5006109;28;20022;-84
2022/04/10 02:47:14;;;;;;;13.60;7.05;;;179.20;2252.80;;;;;;5004964;28;19912;-79
2022/04/10 02:49:39;;;;;;;;;;;179.30;2252.80;;;;;;5004500;28;20058;-84
2022/04/10 02:52:05;;;;;;;12.93;7.35;;;179.40;2252.80;;;;;;5003469;28;19905;-79
2022/04/10 02:54:31;;;;;;;;;;;179.20;2252.80;;;;;;5004286;28;20050;-79
2022/04/10 02:56:56;;;;;;;13.48;7.70;;;179.30;2252.80;;;;;;5004419;28;20280;-83
2022/04/10 02:59:22;;;;;;;;;;;179.40;2252.80;;;;;;5005696;28;20042;-81
2022/04/10 03:01:50;;;;;;;13.50;6.78;;;179.30;2252.80;;;;;;5003375;28;19906;-80
2022/04/10 03:04:17;;;;;;;11.65;6.90;;;179.20;2252.80;;;;;;5004730;28;20029;-79
2022/04/10 03:06:43;;;;;;;14.30;7.20;;;179.20;2252.80;;;;;;5005786;28;20108;-79
2022/04/10 03:09:08;;;;;;;;;;;179.20;2252.80;;;;;;5004352;28;20022;-79
2022/04/10 03:11:34;;;;;;;10.93;6.43;;;179.40;2252.80;;;;;;5004870;28;20365;-79
2022/04/10 03:14:00;;;;;;;;;;;179.30;2252.80;;;;;;5007005;28;20026;-79
2022/04/10 03:16:25;;;;;;;12.30;7.40;;;179.20;2252.80;;;;;;5003375;28;19984;-79
2022/04/10 03:18:51;;;;;;;;;;;179.20;2252.80;;;;;;5005679;28;20143;-80
2022/04/10 03:21:18;;;;;;;10.30;6.75;;;179.20;2252.80;;;;;;5004447;28;20259;-79
2022/04/10 03:23:44;;;;;;;19.38;6.70;;;154.50;2252.80;;;;;;5002998;28;20089;-79
2022/04/10 03:26:09;;;;;;;;;;;154.50;2252.80;;;;;;5005383;28;20053;-79
2022/04/10 03:28:35;;;;;;;10.90;7.18;;;154.50;2252.80;;;;;;5004320;28;19994;-78
2022/04/10 03:31:01;;;;;;;;;;;179.30;2252.80;;;;;;5004620;28;20092;-80
2022/04/10 03:33:26;;;;;;;13.82;6.68;;;179.30;2252.80;;;;;;5002710;28;19957;-79
2022/04/10 03:35:52;;;;;;;;;;;179.40;2252.80;;;;;;5006183;28;20454;-77
2022/04/10 03:38:18;;;;;;;14.70;7.43;;;179.40;2252.80;;;;;;5005221;28;19976;-81
2022/04/10 03:40:44;;;;;;;;;;;179.40;2252.80;;;;;;5003662;28;20033;-78
2022/04/10 03:43:11;;;;;;;14.85;8.60;;;179.60;2252.80;;;;;;5006118;28;20262;-79
2022/04/10 03:45:38;;;;;;;12.93;8.07;;;179.50;2252.80;;;;;;5003856;28;20034;-79
2022/04/10 03:48:07;;;;;;;10.57;6.97;;;179.50;2252.80;;;;;;5006782;28;20081;-82
2022/04/10 03:50:34;;;;;;;13.82;7.22;;;179.70;2252.80;;;;;;5004702;28;20026;-79
2022/04/10 03:53:04;;;;;;;11.50;6.75;;;179.60;2252.80;;;;;;5003030;28;20084;-79
2022/04/10 03:55:30;;;;;;;10.00;5.88;;;179.50;2252.80;;;;;;5002616;28;20074;-78
2022/04/10 03:57:56;;;;;;;11.65;7.32;;;179.70;2252.80;;;;;;5003645;28;20428;-79
2022/04/10 04:00:22;;;;;;;;;;;179.60;2252.80;;;;;;5004959;28;20026;-79
2022/04/10 04:02:48;;;;;;;10.55;7.13;;;179.60;2252.80;;;;;;5002829;28;19905;-80
2022/04/10 04:05:13;;;;;;;;;;;179.50;2252.80;;;;;;5004632;28;20044;-80
2022/04/10 04:07:40;;;;;;;16.10;8.00;;;179.50;2252.80;;;;;;5003612;28;19992;-79
2022/04/10 04:10:07;;;;;;;13.13;6.90;;;179.50;2252.80;;;;;;5002367;28;20022;-80
2022/04/10 04:12:34;;;;;;;11.25;6.93;;;179.50;2252.80;;;;;;5003491;28;20026;-79
2022/04/10 04:15:00;;;;;;;10.68;7.63;;;179.50;2252.80;;;;;;5005694;28;20037;-78
2022/04/10 04:17:26;;;;;;;;;;;179.60;2252.80;;;;;;5004837;28;20030;-79
2022/04/10 04:19:52;;;;;;;14.88;7.00;;;179.70;2252.80;;;;;;5003577;28;19961;-79
2022/04/10 04:22:17;;;;;;;;;;;179.70;2252.80;;;;;;5004980;28;20033;-85
2022/04/10 04:24:44;;;;;;;12.52;7.40;;;179.80;2252.80;;;;;;5005053;28;19920;-84
2022/04/10 04:27:10;;;;;;;11.85;7.75;;;179.70;2252.80;;;;;;5002294;28;20022;-79
2022/04/10 04:29:36;;;;;;;13.90;8.30;;;180.00;2252.80;;;;;;5003579;28;20033;-80
2022/04/10 04:32:01;;;;;;;;;;;179.80;2252.80;;;;;;5006993;28;20030;-79
2022/04/10 04:34:27;;;;;;;12.35;8.57;;;179.80;2252.80;;;;;;5005337;28;20362;-79
2022/04/10 04:36:53;;;;;;;;;;;179.70;2252.80;;;;;;5002393;28;20019;-79
2022/04/10 04:39:19;;;;;;;16.95;8.60;;;179.70;2252.80;;;;;;5003244;28;19913;-79
2022/04/10 04:41:44;;;;;;;;;;;179.80;2252.80;;;;;;5005623;28;20034;-85
2022/04/10 04:44:10;;;;;;;17.27;10.20;;;179.80;2252.80;;;;;;5004032;28;19945;-85
2022/04/10 04:46:36;;;;;;;;;;;179.80;2252.80;;;;;;5001322;28;20119;-78
2022/04/10 04:49:02;;;;;;;18.52;11.27;;;180.00;2252.80;;;;;;5003874;28;19912;-79
2022/04/10 04:51:28;;;;;;;;;;;204.80;2252.80;;;;;;5004952;28;20073;-79
2022/04/10 04:53:54;;;;;;;12.57;8.47;;;204.80;2252.80;;;;;;5002770;28;20326;-80
2022/04/10 04:56:19;;;;;;;;;;;204.90;2252.80;;;;;;5003548;28;20050;-79
2022/04/10 04:58:47;;;;;;;17.35;9.18;;;205.00;2252.80;;;;;;5006207;28;19905;-79
2022/04/10 05:01:14;;;;;;;16.92;8.10;;;204.90;2252.80;;;;;;5002047;28;20034;-79
2022/04/10 05:03:39;;;;;;;;;;;205.10;2252.80;;;;;;5003830;28;20422;-79
2022/04/10 05:06:05;;;;;;;13.27;8.93;;;205.20;2252.80;;;;;;5002817;28;19919;-80
2022/04/10 05:08:31;;;;;;;;;;;205.20;2252.80;;;;;;5004516;28;20025;-79
2022/04/10 05:10:57;;;;;;;13.32;8.13;;;205.20;2252.80;;;;;;4999185;28;19910;-80
2022/04/10 05:13:23;;;;;;;12.95;7.63;;;205.20;2252.80;;;;;;4994045;28;20037;-79
2022/04/10 05:15:49;;;;;;;;;;;205.20;2252.80;;;;;;4993964;28;20030;-79
2022/04/10 05:18:17;;;;;;;11.18;7.25;;;205.30;2252.80;;;;;;4993115;28;19906;-78
2022/04/10 05:20:43;;;;;;;11.23;7.10;;;205.30;2252.80;;;;;;4993760;28;20030;-78
2022/04/10 05:23:09;;;;;;;10.35;7.60;;;205.20;2252.80;;;;;;4994303;28;20034;-82
2022/04/10 05:25:37;;;;;;;11.88;7.05;;;205.30;2252.80;;;;;;4997528;28;20049;-79
2022/04/10 05:28:03;;;;;;;11.20;7.57;;;205.40;2252.80;;;;;;4997396;28;20478;-78
2022/04/10 05:30:29;;;;;;;10.68;7.50;;;205.30;2252.80;;;;;;4997564;28;20061;-78
2022/04/10 05:32:54;;;;;;;;;;;205.30;2252.80;;;;;;4997889;28;20057;-79
2022/04/10 05:35:20;;;;;;;11.95;7.07;;;205.30;2252.80;;;;;;5002266;28;19913;-84
2022/04/10 05:37:46;;;;;;;;;;;205.40;2252.80;;;;;;5008058;28;20105;-78
2022/04/10 05:40:12;;;;;;;9.40;6.47;;;205.30;2252.80;;;;;;5005680;28;19912;-78
2022/04/10 05:42:41;;;;;;;12.55;6.95;;;205.20;2252.80;;;;;;5006001;28;20029;-78
2022/04/10 05:45:07;;;;;;;12.38;7.05;;;205.30;2252.80;;;;;;5007830;28;20164;-78
2022/04/10 05:47:33;;;;;;;;;;;205.40;2252.80;;;;;;5008991;28;20022;-80
2022/04/10 05:49:58;;;;;;;9.45;5.78;;;205.40;2252.80;;;;;;5009102;28;20397;-80
2022/04/10 05:52:24;;;;;;;;;;;205.40;2252.80;;;;;;4998798;28;20034;-79
2022/04/10 05:54:50;;;;;;;13.00;7.50;;;205.40;2252.80;;;;;;4997557;28;20000;-87
2022/04/10 05:57:15;;;;;;;;;;;205.50;2252.80;;;;;;4997664;28;20034;-78
2022/04/10 05:59:41;;;;;;;9.77;6.05;;;205.50;2252.80;;;;;;4996956;28;19906;-78
2022/04/10 06:02:06;;;;;;;;;;;205.50;2252.80;;;;;;4997354;28;20027;-85
2022/04/10 06:04:32;;;;;;;9.60;6.72;;;205.50;2252.80;;;;;;4997252;28;20001;-86
2022/04/10 06:06:58;;;;;;;;;;;205.70;2252.80;;;;;;4997709;28;20089;-79
2022/04/10 06:09:23;;;;;;;11.15;7.55;;;230.40;2252.80;;;;;;4997073;28;19915;-87
2022/04/10 06:11:49;;;;;;;;;;;230.50;2252.80;;;;;;4998406;28;20037;-83
2022/04/10 06:14:15;;;;;;;7.93;5.85;;;230.60;2252.80;;;;;;4996862;28;19909;-80
2022/04/10 06:16:40;;;;;;;;;;;230.50;2252.80;;;;;;5006107;28;20035;-81
2022/04/10 06:19:06;;;;;;;11.43;6.15;;;230.60;2252.80;;;;;;5005266;28;19913;-80
2022/04/10 06:21:31;;;;;;;;;;;205.70;2252.80;;;;;;4997861;28;20034;-88
2022/04/10 06:23:57;;;;;;;9.35;6.07;;;230.40;2252.80;;;;;;4996787;28;20289;-81
2022/04/10 06:26:23;;;;;;;;;;;230.50;2252.80;;;;;;4996900;28;20121;-79
2022/04/10 06:28:48;;;;;;;9.32;6.47;;;230.50;2252.80;;;;;;4996543;28;19905;-79
2022/04/10 06:31:14;;;;;;;;;;;230.60;2252.80;;;;;;4996774;28;20124;-80
2022/04/10 06:33:40;;;;;;;10.70;5.82;;;230.60;2252.80;;;;;;4996107;28;19989;-81
2022/04/10 06:36:05;;;;;;;;;;;230.50;2252.80;;;;;;4996776;28;20430;-79
2022/04/10 06:38:31;;;;;;;11.75;6.30;;;230.60;2252.80;;;;;;4995708;28;20305;-79
2022/04/10 06:40:57;;;;;;;;;;;230.60;2252.80;;;;;;4997315;28;20062;-79
2022/04/10 06:43:22;;;;;;;12.52;5.93;;;230.70;2252.80;;;;;;4996625;28;19910;-78
2022/04/10 06:45:48;;;;;;;;;;;230.90;2252.80;;;;;;4996034;28;20046;-79
2022/04/10 06:48:14;;;;;;;7.05;5.03;;;231.00;2252.80;;;;;;4996531;28;20381;-79
2022/04/10 06:50:40;;;;;;;8.68;5.85;;;230.90;2252.80;;;;;;4995427;28;20061;-83
2022/04/10 06:53:06;;;;;;;8.38;5.88;;;231.00;2252.80;;;;;;4995560;28;20026;-78
2022/04/10 06:55:32;;;;;;;;;;;231.20;2252.80;;;;;;4995714;28;20046;-78
2022/04/10 06:57:57;;;;;;;11.65;7.03;;;231.20;2252.80;;;;;;4996993;28;19941;-78
2022/04/10 07:00:23;;;;;;;;;;;231.20;2252.80;;;;;;4996199;28;20030;-77
2022/04/10 07:02:49;;;;;;;7.40;5.20;;;231.30;2252.80;;;;;;4996510;28;20358;-85
2022/04/10 07:05:15;;;;;;;;;;;231.20;2252.80;;;;;;4995199;28;20086;-78
2022/04/10 07:07:40;;;;;;;7.70;5.25;;;231.30;2252.80;;;;;;4995498;28;20269;-83
2022/04/10 07:10:06;;;;;;;;;;;231.30;2252.80;;;;;;4995755;28;20045;-79
2022/04/10 07:12:32;;;;;;;8.40;5.47;;;256.10;2252.80;;;;;;4995367;28;20354;-82
2022/04/10 07:15:01;;;;;;;;;;;256.20;2252.80;;;;;;4995051;28;20030;-79
2022/04/10 07:17:29;;;;;;;13.32;8.65;;;256.20;2252.80;;;;;;4995910;28;20285;-85
2022/04/10 07:19:55;;;;;;;10.00;5.55;;;256.20;2252.80;;;;;;4995103;28;20471;-82
2022/04/10 07:25:05;;;;;;;9.43;6.45;;;256.30;2252.80;;;;;;4996407;28;20602;-77
2022/04/10 07:27:31;;;;;;;9.63;6.35;;;256.40;2252.80;;;;;;4996132;28;20064;-78
2022/04/10 07:29:57;;;;;;;35.50;23.30;;;256.50;2252.80;;;;;;4995101;28;20027;-79
2022/04/10 07:32:22;;;;;;;;;;;256.50;2252.80;;;;;;4996349;28;20033;-77
2022/04/10 07:34:48;;;;;;;11.43;8.38;;;256.50;2252.80;;;;;;4995781;28;19960;-78
2022/04/10 07:37:14;;;;;;;;;;;256.60;2252.80;;;;;;4995421;28;20125;-79
2022/04/10 07:39:41;;;;;;;10.63;7.38;;;256.60;2252.80;;;;;;4994671;28;19906;-86
2022/04/10 07:42:08;;;;;;;21.40;10.85;;;256.60;2252.80;;;;;;4994494;28;20483;-79
2022/04/10 07:44:34;;;;;;;14.55;8.32;;;256.50;2252.80;;;;;;4995495;28;20076;-76
2022/04/10 07:49:44;;;;;;;12.70;8.57;;;256.50;2252.80;;;;;;4995619;28;20058;-92
2022/04/10 07:52:10;;;;;;;19.50;13.85;;;256.50;2252.80;;;;;;4995337;28;20096;-77
2022/04/10 07:54:35;;;;;;;12.35;7.85;;;256.50;2252.80;;;;;;4993504;28;20050;-77
2022/04/10 07:57:03;;;;;;;;;;;256.60;2252.80;;;;;;4994543;28;20033;-86
2022/04/10 07:59:29;;;;;;;11.93;7.03;;;256.50;2252.80;;;;;;4994085;28;19912;-76
2022/04/10 08:01:55;;;;;;;21.70;12.07;;;256.60;2252.80;;;;;;4993817;28;20113;-77
2022/04/10 08:04:20;;;;;;;14.85;9.13;;;256.50;2252.80;;;;;;4994137;28;20137;-88
2022/04/10 08:06:46;;;;;;;11.82;9.02;;;256.40;2252.80;;;;;;4998769;28;20030;-77
2022/04/10 08:09:12;;;;;;;;;;;256.60;2252.80;;;;;;5004828;28;20026;-77
2022/04/10 08:11:39;;;;;;;18.25;10.25;;;256.80;2252.80;;;;;;5002802;28;19906;-76
2022/04/10 08:14:05;;;;;;;14.98;9.35;;;256.80;2252.80;;;;;;5004087;28;20025;-79
2022/04/10 08:16:31;;;;;;;17.25;11.43;;;256.70;2252.80;;;;;;5006981;28;20064;-76
2022/04/10 08:18:57;;;;;;;32.38;18.20;;;256.80;2252.80;;;;;;5002738;28;20057;-77
2022/04/10 08:21:22;;;;;;;;;;;256.80;2252.80;;;;;;5009277;28;20022;-77
2022/04/10 08:23:48;;;;;;;13.95;9.77;;;281.70;2278.40;;;;;;5013275;28;19913;-90
2022/04/10 08:26:13;;;;;;;;;;;281.80;2278.40;;;;;;5013988;28;20030;-88
2022/04/10 08:28:39;;;;;;;19.92;11.52;;;281.80;2278.40;;;;;;5013717;28;19988;-77
2022/04/10 08:31:05;;;;;;;;;;;281.90;2278.40;;;;;;5013552;28;20041;-78
2022/04/10 08:33:30;;;;;;;24.27;12.10;;;281.80;2278.40;;;;;;5013175;28;19917;-78
2022/04/10 08:35:56;;;;;;;;;;;281.70;2278.40;;;;;;5013703;28;20032;-78
2022/04/10 08:38:23;;;;;;;15.38;9.02;;;281.60;2278.40;;;;;;5013235;28;19910;-76
2022/04/10 08:40:50;;;;;;;18.95;11.80;;;256.90;2252.80;;;;;;5012935;28;20488;-76
2022/04/10 08:43:19;;;;;;;16.35;11.65;;;281.60;2278.40;;;;;;5012873;28;20037;-77
2022/04/10 08:45:46;;;;;;;17.92;11.63;;;281.60;2278.40;;;;;;5012735;28;20046;-76
2022/04/10 08:48:13;;;;;;;20.20;10.77;;;281.80;2278.40;;;;;;5012758;28;20469;-78
2022/04/10 08:50:39;;;;;;;28.48;12.73;;;281.80;2278.40;;;;;;5009698;28;20026;-84
2022/04/10 08:53:06;;;;;;;15.05;9.75;;;281.90;2278.40;;;;;;5001413;28;20398;-77
2022/04/10 08:55:32;;;;;;;31.15;13.93;;;282.00;2278.40;;;;;;5001642;28;20045;-77
2022/04/10 08:57:57;;;;;;;40.95;19.92;;;282.00;2278.40;;;;;;5001297;28;20131;-77
2022/04/10 09:00:23;;;;;;;27.73;16.10;;;282.10;2278.40;;;;;;5001866;28;20084;-77
2022/04/10 09:02:50;;;;;;;;;;;282.10;2278.40;;;;;;5003942;28;20502;-77
2022/04/10 09:05:21;;;;;;;26.05;12.13;;;282.10;2278.40;;;;;;5011416;28;19914;-77
2022/04/10 09:08:12;;;;;;;20.17;11.30;;;282.20;2278.40;;;;;;5002297;28;20022;-77
2022/04/10 09:11:03;;;;;;;15.43;7.53;;;282.10;2278.40;;;;;;5002565;28;20034;-80
2022/04/10 09:13:40;;;;;;;10.48;6.75;;;282.20;2278.40;;;;;;5002152;28;20014;-77
2022/04/10 09:16:10;;;;;;;;;;;282.30;2278.40;;;;;;5001642;28;20018;-80
2022/04/10 09:19:00;;;;;;;14.73;6.65;;;282.30;2278.40;;;;;;5006471;28;19955;-77
2022/04/10 09:21:34;;;;;;;9.05;6.30;;;282.20;2278.40;;;;;;5016836;28;20038;-77
2022/04/10 09:24:07;;;;;;;11.02;6.60;;;282.30;2278.40;;;;;;4992533;28;20035;-78
2022/04/10 09:26:56;;;;;;;11.13;6.63;;;282.30;2278.40;;;;;;4995324;28;20690;-78
2022/04/10 09:29:49;;;;;;;15.43;6.80;;;282.20;2278.40;;;;;;5003676;28;20030;-82
2022/04/10 09:32:15;;;;;;;19.05;7.55;;;282.40;2278.40;;;;;;5007062;28;20086;-82
2022/04/10 09:34:41;;;;;;;11.85;5.85;;;282.40;2278.40;;;;;;5012776;28;20057;-79
2022/04/10 09:37:06;;;;;;;16.60;7.93;;;307.20;2227.20;;;;;;5012879;28;20032;-80
2022/04/10 09:39:33;;;;;;;;;;;307.30;2252.80;;;;;;5012951;28;20096;-80
2022/04/10 09:42:03;;;;;;;7.47;5.13;;;307.20;2304.00;;;;;;5012774;28;19911;-78
2022/04/10 09:44:32;;;;;;;12.05;5.30;;;282.50;2278.40;;;;;;5013004;28;20030;-78
2022/04/10 09:47:06;;;;;;;19.17;8.93;;;307.30;2304.00;;;;;;5016796;28;20034;-78
2022/04/10 09:49:41;;;;;;;12.57;6.55;;;307.40;2304.00;;;;;;5022002;28;20029;-77
2022/04/10 09:52:14;;;;;;;16.40;8.97;;;307.50;2304.00;;;;;;5017454;28;20034;-89
2022/04/10 09:54:47;;;;;;;11.52;5.80;;;307.60;2304.00;;;;;;5013008;28;20061;-77
2022/04/10 09:57:18;;;;;;;13.15;6.63;;;307.60;2227.20;;;;;;5011624;28;20038;-78
2022/04/10 09:59:47;;;;;;;13.02;6.95;;;307.90;2278.40;;;;;;5012084;28;20030;-77
2022/04/10 10:02:15;;;;;;;8.48;4.55;;;332.80;2329.60;;;;;;5012221;28;20065;-76
2022/04/10 10:04:43;;;;;;;12.52;5.93;;;332.80;2099.20;;;;;;5012119;28;20041;-76
2022/04/10 10:07:27;;;;;;;8.85;5.60;;;332.90;2073.60;;;;;;5013489;28;20026;-77
2022/04/10 10:09:56;;;;;;;9.30;5.38;;;332.90;2099.20;;;;;;5014650;28;20512;-84
2022/04/10 10:12:22;;;;;;;10.70;5.30;;;333.10;2099.20;;;;;;5015386;28;20057;-75
2022/04/10 10:14:49;;;;;;;8.77;4.82;;;332.80;2048.00;;;;;;5012509;28;20033;-76
2022/04/10 10:17:16;;;;;;;10.25;6.07;;;333.20;2048.00;;;;;;5015799;28;20018;-77
2022/04/10 10:19:42;;;;;;;8.15;5.25;;;333.40;1945.60;;;;;;5015343;28;20410;-75
2022/04/10 10:22:10;;;;;;;7.57;4.55;;;333.30;1971.20;;;;;;5013441;28;20022;-84
2022/04/10 10:25:07;;;;;;;9.48;5.25;;;333.50;1920.00;;;;;;4998667;28;20038;-86
2022/04/10 10:27:54;;;;;;;8.45;5.55;;;358.40;1945.60;;;;;;4995597;28;20026;-76
2022/04/10 10:30:25;;;;;;;7.78;5.05;;;333.70;1868.80;;;;;;4995674;28;20085;-76
2022/04/10 10:33:09;;;;;;;8.15;5.43;;;333.60;1894.40;;;;;;4996802;28;20498;-77
2022/04/10 10:35:40;;;;;;;7.32;4.28;;;358.60;1817.60;;;;;;4997310;28;20041;-77
2022/04/10 10:38:18;;;;;;;6.30;3.97;;;333.40;1792.00;;;;;;5000700;28;20125;-80
2022/04/10 10:40:44;;;;;;;7.20;5.07;;;333.70;1766.40;;;;;;5003519;28;20025;-77
2022/04/10 10:43:10;;;;;;;11.45;5.50;;;358.40;1843.20;;;;;;5003456;28;20390;-87
2022/04/10 10:45:44;;;;;;;8.35;5.30;;;358.60;1817.60;;;;;;5013881;28;20065;-87
2022/04/10 10:48:31;;;;;;;9.35;4.85;;;358.80;1817.60;;;;;;5015970;28;20034;-89
2022/04/10 10:51:22;;;;;;;7.55;5.18;;;358.80;1792.00;;;;;;5016087;28;20133;-89
2022/04/10 10:53:58;;;;;;;12.27;5.45;;;358.60;1817.60;;;;;;5011981;28;20165;-80
2022/04/10 10:56:36;;;;;;;6.38;4.60;;;358.40;1766.40;;;;;;5014841;28;20068;-79
2022/04/10 10:59:23;;;;;;;8.40;5.40;;;358.60;1766.40;;;;;;5016639;28;20095;-82
2022/04/10 11:02:00;;;;;;;10.10;5.10;;;333.70;1792.00;;;;;;5015257;28;20054;-86
2022/04/10 11:04:29;;;;;;;7.95;5.07;;;358.80;1766.40;;;;;;5014479;28;20081;-76
2022/04/10 11:07:08;;;;;;;7.30;4.10;;;359.30;1766.40;;;;;;5014684;28;20022;-87
2022/04/10 11:09:34;;;;;;;7.78;4.63;;;384.10;1740.80;;;;;;5013932;28;20110;-84
2022/04/10 11:12:00;;;;;;;9.07;4.28;;;359.20;1740.80;;;;;;5014419;28;20053;-76
2022/04/10 11:14:33;;;;;;;11.32;3.78;;;358.80;1689.60;;;;;;5015940;28;20470;-76
2022/04/10 11:17:13;;;;;;;6.90;3.90;;;358.50;1715.20;;;;;;5014489;28;20022;-84
2022/04/10 11:19:44;;;;;;;8.43;4.47;;;333.70;1689.60;;;;;;5015677;28;20038;-77
2022/04/10 11:22:17;;;;;;;5.38;3.58;;;333.70;1689.60;;;;;;5013349;28;20026;-76
2022/04/10 11:24:43;;;;;;;6.30;3.80;;;333.40;1664.00;;;;;;5014134;28;20030;-76
2022/04/10 11:27:13;;;;;;;7.97;4.47;;;333.30;1664.00;;;;;;5014216;28;20029;-75
2022/04/10 11:30:01;;;;;;;5.85;3.58;;;333.70;1689.60;;;;;;5014953;28;20026;-77
2022/04/10 11:32:45;;;;;;;8.25;3.63;;;333.70;1689.60;;;;;;5003318;28;20037;-86
2022/04/10 11:35:25;;;;;;;8.68;4.43;;;358.70;1612.80;;;;;;5004998;28;20360;-77
2022/04/10 11:37:53;;;;;;;10.35;3.88;;;359.10;1612.80;;;;;;4998195;28;20079;-77
2022/04/10 11:40:21;;;;;;;6.40;3.33;;;359.10;1587.20;;;;;;4994149;28;20113;-76
2022/04/10 11:42:47;;;;;;;8.05;3.47;;;358.80;1587.20;;;;;;4994625;28;20479;-76
2022/04/10 11:45:13;;;;;;;5.85;2.97;;;358.50;1587.20;;;;;;4995420;28;20618;-76
2022/04/10 11:47:41;;;;;;;5.85;3.70;;;358.50;1561.60;;;;;;4994207;28;20022;-76
2022/04/10 11:50:08;;;;;;;8.60;4.00;;;358.60;1536.00;;;;;;4994383;28;20108;-86
2022/04/10 11:52:34;;;;;;;7.65;4.25;;;358.90;1536.00;;;;;;5001973;28;20038;-76
2022/04/10 11:54:59;;;;;;;11.43;3.90;;;359.30;1561.60;;;;;;5001340;28;20058;-79
2022/04/10 11:57:25;;;;;;;4.80;2.88;;;358.90;1561.60;;;;;;5001778;28;20462;-75
2022/04/10 11:59:53;;;;;;;4.78;2.78;;;358.50;1484.80;;;;;;5004651;28;20029;-75
2022/04/10 12:02:19;;;;;;;8.30;3.63;;;358.60;1510.40;;;;;;5004575;28;20034;-84
2022/04/10 12:04:49;;;;;;;7.22;3.38;;;358.50;1510.40;;;;;;5004728;28;20114;-77
2022/04/10 12:07:21;;;;;;;6.78;2.95;;;358.90;1536.00;;;;;;5003442;28;20015;-81
2022/04/10 12:09:49;;;;;;;6.95;3.28;;;358.60;1484.80;;;;;;5003780;28;20018;-78
2022/04/10 12:12:34;;;;;;;6.35;3.33;;;358.60;1484.80;;;;;;5003313;28;20025;-75
2022/04/10 12:14:59;;;;;;;11.25;3.90;;;358.80;1484.80;;;;;;5017779;28;20382;-76
2022/04/10 12:17:25;;;;;;;6.63;3.38;;;358.90;1536.00;;;;;;5004345;28;20029;-76
2022/04/10 12:19:55;;;;;;;8.95;3.97;;;358.80;1561.60;;;;;;5003025;28;20062;-77
2022/04/10 12:22:24;;;;;;;8.55;4.53;;;358.80;1587.20;;;;;;5003187;28;20062;-81
2022/04/10 12:24:57;;;;;;;7.28;3.72;;;359.00;1587.20;;;;;;5003544;28;20048;-81
2022/04/10 12:27:23;;;;;;;7.68;4.25;;;358.60;1561.60;;;;;;5003297;28;20339;-75
2022/04/10 12:29:49;;;;;;;9.13;3.17;;;358.60;1587.20;;;;;;5003025;28;20022;-76
2022/04/10 12:32:16;;;;;;;6.82;3.67;;;333.70;1587.20;;;;;;5007148;28;20030;-76
2022/04/10 12:34:42;;;;;;;7.25;2.92;;;333.70;1587.20;;;;;;5006682;28;20050;-77
2022/04/10 12:37:09;;;;;;;5.10;2.75;;;333.60;1561.60;;;;;;5004387;28;20382;-76
2022/04/10 12:39:36;;;;;;;8.48;3.50;;;333.70;1561.60;;;;;;5002601;28;20483;-76